Time;durP1;ratioP1;P1;durP2;ratioP2;P2;SDS_P1;SDS_P2;PMS_P1;PMS_P2;Temp;Humidity;BMP_temperature;BMP_pressure;BME280_temperature;BME280_humidity;BME280_pressure;Samples;Min_cycle;Max_cycle;Signal;HPM_P1;HPM_P2
2021/09/15 00:01:40;;;;;;;4.85;3.17;;;;;;;30.96;24.97;98374.50;5081682;28;20436;-86
2021/09/15 00:04:06;;;;;;;5.28;3.55;;;;;;;31.06;25.07;98376.88;5083448;28;20037;-86
2021/09/15 00:06:32;;;;;;;5.13;3.67;;;;;;;31.09;25.59;98384.41;5088059;28;20085;-85
2021/09/15 00:08:58;;;;;;;4.00;3.38;;;;;;;30.91;25.60;98375.94;5078334;28;20056;-86
2021/09/15 00:11:24;;;;;;;4.95;3.28;;;;;;;30.98;25.32;98374.81;5081911;28;20032;-85
2021/09/15 00:13:50;;;;;;;6.63;4.22;;;;;;;30.98;25.24;98372.78;5081758;28;20028;-86
2021/09/15 00:16:16;;;;;;;3.75;3.13;;;;;;;30.68;25.34;98374.50;5089185;28;20158;-85
2021/09/15 00:18:43;;;;;;;3.03;2.70;;;;;;;30.69;25.21;98378.91;5088843;28;20036;-86
2021/09/15 00:21:09;;;;;;;5.20;2.75;;;;;;;30.84;25.19;98378.25;5077193;28;20047;-86
2021/09/15 00:23:35;;;;;;;3.00;2.35;;;;;;;31.01;24.62;98376.72;5083935;28;20040;-86
2021/09/15 00:26:01;;;;;;;4.05;2.88;;;;;;;31.03;24.32;98368.50;5079961;28;20039;-85
2021/09/15 00:28:27;;;;;;;3.47;3.10;;;;;;;31.04;24.22;98370.09;5083535;28;20036;-86
2021/09/15 00:30:53;;;;;;;4.18;3.25;;;;;;;30.82;24.32;98369.44;5077689;28;20033;-85
2021/09/15 00:33:19;;;;;;;4.72;2.83;;;;;;;30.82;24.38;98383.63;5079285;28;20035;-85
2021/09/15 00:35:45;;;;;;;2.55;2.25;;;;;;;30.61;24.33;98371.97;5079424;28;20032;-86
2021/09/15 00:38:11;;;;;;;3.08;2.53;;;;;;;30.66;23.96;98365.69;5082029;28;20029;-85
2021/09/15 00:40:37;;;;;;;4.63;2.58;;;;;;;30.73;23.87;98375.91;5078428;28;20435;-86
2021/09/15 00:43:03;;;;;;;3.90;3.28;;;;;;;30.64;24.12;98378.75;5090610;28;20032;-86
2021/09/15 00:45:30;;;;;;;4.20;2.45;;;;;;;30.56;24.11;98374.63;5085755;28;20036;-86
2021/09/15 00:47:56;;;;;;;3.28;2.83;;;;;;;30.33;24.82;98380.91;5091487;28;20435;-85
2021/09/15 00:50:22;;;;;;;2.60;2.35;;;;;;;30.22;25.06;98375.69;5080150;28;20043;-86
2021/09/15 00:52:48;;;;;;;4.68;2.60;;;;;;;30.13;25.25;98377.69;5082564;28;20040;-85
2021/09/15 00:55:14;;;;;;;4.85;3.28;;;;;;;29.93;25.72;98387.41;5083355;28;20094;-86
2021/09/15 00:57:40;;;;;;;3.22;2.92;;;;;;;29.91;25.45;98378.59;5080733;28;20078;-86
2021/09/15 01:00:07;;;;;;;5.28;3.45;;;;;;;30.17;25.79;98386.84;5088187;28;20060;-85
2021/09/15 01:02:33;;;;;;;3.08;2.35;;;;;;;30.23;25.50;98380.06;5084105;28;20544;-86
2021/09/15 01:04:59;;;;;;;3.47;2.70;;;;;;;30.42;24.63;98381.72;5084098;28;20028;-85
2021/09/15 01:07:25;;;;;;;2.83;2.42;;;;;;;30.62;24.18;98384.09;5088560;28;20033;-86
2021/09/15 01:09:52;;;;;;;3.67;2.85;;;;;;;30.66;23.78;98381.91;5080773;28;20493;-85
2021/09/15 01:12:18;;;;;;;4.63;2.92;;;;;;;30.62;23.76;98379.19;5081830;28;20036;-85
2021/09/15 01:14:45;;;;;;;2.97;2.65;;;;;;;30.63;23.54;98382.84;5088527;28;20392;-85
2021/09/15 01:17:11;;;;;;;2.95;2.17;;;;;;;30.43;23.68;98376.84;5081666;28;20033;-85
2021/09/15 01:19:37;;;;;;;4.03;3.25;;;;;;;30.40;23.49;98378.56;5083046;28;20112;-86
2021/09/15 01:22:03;;;;;;;4.43;2.90;;;;;;;30.50;23.20;98382.97;5081043;28;20043;-85
2021/09/15 01:24:30;;;;;;;2.95;2.65;;;;;;;30.57;22.96;98376.22;5081910;28;20028;-85
2021/09/15 01:26:58;;;;;;;3.80;2.80;;;;;;;30.34;22.99;98377.59;5081134;28;20037;-86
2021/09/15 01:29:30;;;;;;;3.80;2.95;;;;;;;29.84;23.60;98373.22;5083019;28;20105;-85
2021/09/15 01:32:04;;;;;;;2.45;2.25;;;;;;;29.74;23.75;98370.78;5079936;28;20043;-86
2021/09/15 01:34:39;;;;;;;3.00;2.55;;;;;;;29.91;23.65;98372.13;5081356;28;20071;-86
2021/09/15 01:37:06;;;;;;;4.85;4.07;;;;;;;29.61;24.95;98362.41;5080378;28;20048;-86
2021/09/15 01:39:33;;;;;;;2.97;2.50;;;;;;;29.47;24.47;98362.16;5080735;28;20032;-85
2021/09/15 01:42:01;;;;;;;2.92;2.60;;;;;;;29.55;24.19;98363.44;5084461;28;20036;-86
2021/09/15 01:44:35;;;;;;;3.72;2.85;;;;;;;29.88;23.70;98347.56;5078828;28;20032;-86
2021/09/15 01:47:03;;;;;;;2.90;2.60;;;;;;;30.09;23.82;98353.16;5076541;28;20366;-86
2021/09/15 01:49:49;;;;;;;3.10;2.58;;;;;;;30.04;24.15;98352.97;5081939;28;20436;-85
2021/09/15 01:52:16;;;;;;;3.67;3.00;;;;;;;30.16;23.69;98348.41;5082660;28;20035;-86
2021/09/15 01:54:44;;;;;;;3.92;2.90;;;;;;;30.16;23.90;98348.41;5085744;28;20436;-86
2021/09/15 01:57:10;;;;;;;2.95;2.40;;;;;;;30.05;24.00;98357.38;5080942;28;20036;-85
2021/09/15 01:59:36;;;;;;;2.50;2.28;;;;;;;30.08;23.71;98362.13;5077903;28;20037;-86
2021/09/15 02:02:02;;;;;;;4.57;2.55;;;;;;;30.29;23.54;98352.72;5084030;28;20426;-86
2021/09/15 02:04:28;;;;;;;2.88;2.58;;;;;;;30.11;23.77;98355.50;5077396;28;20039;-86
2021/09/15 02:06:55;;;;;;;4.00;2.38;;;;;;;30.32;23.43;98360.25;5076052;28;20029;-86
2021/09/15 02:09:21;;;;;;;3.85;3.13;;;;;;;30.27;23.54;98349.53;5078034;28;20497;-85
2021/09/15 02:11:47;;;;;;;3.85;2.55;;;;;;;30.14;23.39;98350.94;5080897;28;20036;-85
2021/09/15 02:14:13;;;;;;;4.03;3.42;;;;;;;30.17;23.91;98353.63;5085373;28;20620;-85
2021/09/15 02:16:40;;;;;;;3.28;2.53;;;;;;;30.32;23.65;98365.13;5085706;28;20024;-85
2021/09/15 02:19:06;;;;;;;3.60;2.67;;;;;;;30.52;23.39;98357.81;5086331;28;20035;-86
2021/09/15 02:21:32;;;;;;;2.90;2.15;;;;;;;30.35;22.70;98359.34;5078022;28;20035;-85
2021/09/15 02:23:58;;;;;;;3.17;2.47;;;;;;;29.97;23.14;98356.09;5084779;28;20036;-86
2021/09/15 02:26:24;;;;;;;2.40;2.20;;;;;;;30.06;23.33;98356.91;5085730;28;20029;-85
2021/09/15 02:28:50;;;;;;;3.33;2.30;;;;;;;30.23;23.16;98363.06;5085339;28;20481;-86
2021/09/15 02:31:17;;;;;;;5.43;2.90;;;;;;;30.16;23.02;98351.25;5077661;28;20524;-85
2021/09/15 02:33:43;;;;;;;3.20;2.90;;;;;;;30.20;23.14;98364.00;5081938;28;20059;-85
2021/09/15 02:36:09;;;;;;;2.20;2.00;;;;;;;30.20;23.40;98358.34;5079255;28;20025;-85
2021/09/15 02:38:35;;;;;;;2.00;1.80;;;;;;;30.21;23.47;98362.75;5077521;28;20078;-85
2021/09/15 02:41:01;;;;;;;4.05;2.42;;;;;;;30.08;23.13;98356.44;5079964;28;20097;-85
2021/09/15 02:43:27;;;;;;;3.47;2.85;;;;;;;30.05;22.72;98363.84;5075271;28;20107;-85
2021/09/15 02:45:54;;;;;;;2.88;2.47;;;;;;;29.66;23.04;98361.81;5081406;28;20033;-85
2021/09/15 02:48:20;;;;;;;4.70;2.92;;;;;;;29.62;23.42;98355.47;5083672;28;20481;-85
2021/09/15 02:50:46;;;;;;;4.20;3.20;;;;;;;29.71;23.60;98360.41;5084604;28;20431;-86
2021/09/15 02:53:12;;;;;;;3.10;2.22;;;;;;;29.56;23.90;98360.19;5077977;28;20093;-85
2021/09/15 02:55:38;;;;;;;4.22;2.53;;;;;;;29.61;23.84;98361.59;5076289;28;20115;-85
2021/09/15 02:58:04;;;;;;;3.35;2.83;;;;;;;29.59;23.89;98359.25;5086049;28;20051;-86
2021/09/15 03:00:31;;;;;;;2.45;2.22;;;;;;;29.77;23.40;98359.34;5078583;28;20032;-85
2021/09/15 03:02:57;;;;;;;3.67;2.67;;;;;;;29.53;23.76;98365.97;5081019;28;20028;-85
2021/09/15 03:05:23;;;;;;;1.73;1.63;;;;;;;29.29;23.93;98360.06;5078293;28;20032;-86
2021/09/15 03:07:49;;;;;;;2.08;1.80;;;;;;;29.43;23.81;98356.63;5074362;28;20094;-85
2021/09/15 03:10:15;;;;;;;1.90;1.75;;;;;;;29.26;24.25;98364.59;5076718;28;20083;-85
2021/09/15 03:12:41;;;;;;;3.85;2.90;;;;;;;29.27;24.03;98360.50;5078629;28;20166;-85
2021/09/15 03:15:08;;;;;;;4.20;2.17;;;;;;;29.43;23.72;98353.81;5079243;28;20028;-85
2021/09/15 03:17:34;;;;;;;2.60;2.40;;;;;;;29.56;23.40;98356.56;5079032;28;20028;-86
2021/09/15 03:20:00;;;;;;;3.85;2.40;;;;;;;29.59;23.53;98361.28;5086159;28;20028;-86
2021/09/15 03:22:26;;;;;;;3.67;2.60;;;;;;;29.41;23.80;98361.97;5076423;28;20043;-86
2021/09/15 03:24:52;;;;;;;2.40;2.20;;;;;;;29.29;23.80;98357.97;5076737;28;20040;-86
2021/09/15 03:27:18;;;;;;;2.65;2.42;;;;;;;29.42;23.55;98355.06;5085138;28;20040;-86
2021/09/15 03:29:44;;;;;;;5.03;2.05;;;;;;;29.27;23.73;98357.66;5097766;28;20034;-86
2021/09/15 03:32:10;;;;;;;1.90;1.70;;;;;;;29.35;23.50;98349.69;5077331;28;20102;-86
2021/09/15 03:34:36;;;;;;;4.47;2.50;;;;;;;29.30;23.67;98350.28;5082135;28;20082;-85
2021/09/15 03:37:03;;;;;;;3.05;2.40;;;;;;;29.37;24.72;98353.63;5079285;28;20032;-85
2021/09/15 03:39:29;;;;;;;2.72;2.15;;;;;;;29.50;24.62;98347.09;5085489;28;20020;-85
2021/09/15 03:41:55;;;;;;;2.05;1.73;;;;;;;29.51;23.94;98349.47;5087828;28;20040;-85
2021/09/15 03:44:21;;;;;;;2.90;2.40;;;;;;;29.54;23.58;98345.72;5075593;28;20551;-85
2021/09/15 03:46:47;;;;;;;5.28;2.22;;;;;;;29.21;24.33;98359.53;5086375;28;20574;-85
2021/09/15 03:49:13;;;;;;;2.25;1.80;;;;;;;29.15;24.26;98346.41;5081251;28;20435;-85
2021/09/15 03:51:39;;;;;;;2.20;2.00;;;;;;;29.36;24.16;98348.44;5077632;28;20033;-85
2021/09/15 03:54:06;;;;;;;3.78;2.40;;;;;;;29.24;24.46;98352.91;5083285;28;20089;-85
2021/09/15 03:56:32;;;;;;;2.30;1.77;;;;;;;29.28;24.14;98347.94;5080998;28;20034;-85
2021/09/15 03:58:59;;;;;;;4.25;2.50;;;;;;;29.34;24.12;98359.41;5075515;28;20020;-85
2021/09/15 04:01:25;;;;;;;2.72;2.22;;;;;;;29.46;24.54;98357.75;5083672;28;20484;-85
2021/09/15 04:03:51;;;;;;;2.85;1.80;;;;;;;29.57;23.76;98353.25;5077469;28;20043;-85
2021/09/15 04:06:17;;;;;;;2.50;1.88;;;;;;;29.82;23.32;98355.91;5076083;28;20043;-85
2021/09/15 04:08:43;;;;;;;1.60;1.45;;;;;;;29.74;22.96;98354.56;5078653;28;20128;-85
2021/09/15 04:11:09;;;;;;;3.03;2.05;;;;;;;29.87;22.91;98368.66;5080987;28;20076;-84
2021/09/15 04:13:35;;;;;;;3.35;2.10;;;;;;;29.92;22.67;98366.00;5078642;28;20028;-85
2021/09/15 04:16:01;;;;;;;3.78;2.10;;;;;;;29.94;22.77;98357.03;5083415;28;20036;-85
2021/09/15 04:18:27;;;;;;;3.70;2.10;;;;;;;29.90;22.73;98367.72;5083445;28;20158;-85
2021/09/15 04:20:53;;;;;;;2.67;1.92;;;;;;;29.68;23.24;98372.66;5076314;28;20076;-84
2021/09/15 04:23:46;;;;;;;3.75;2.05;;;;;;;29.67;22.96;98368.22;5075502;28;20031;-84
2021/09/15 04:31:41;;;;;;;3.55;2.05;;;;;;;29.81;22.41;98373.34;5079005;28;20070;-88
2021/09/15 04:34:07;;;;;;;3.13;1.95;;;;;;;29.50;22.91;98364.84;5078034;28;20035;-88
2021/09/15 04:36:33;;;;;;;2.05;1.80;;;;;;;29.35;23.19;98361.00;5083108;28;20067;-87
2021/09/15 04:38:59;;;;;;;1.50;1.40;;;;;;;29.24;23.36;98363.47;5084085;28;20032;-87
2021/09/15 04:41:25;;;;;;;3.05;2.00;;;;;;;29.49;23.00;98371.78;5079330;28;20028;-83
2021/09/15 04:43:51;;;;;;;2.95;1.95;;;;;;;29.56;23.06;98363.00;5082092;28;20059;-87
2021/09/15 04:46:17;;;;;;;2.20;1.60;;;;;;;29.31;23.40;98361.13;5082037;28;20103;-86
2021/09/15 04:48:43;;;;;;;2.20;1.60;;;;;;;29.41;23.06;98361.97;5090758;28;20024;-87
2021/09/15 04:51:11;;;;;;;1.98;1.77;;;;;;;29.69;22.97;98360.84;5088560;28;20061;-84
2021/09/15 04:53:37;;;;;;;1.60;1.48;;;;;;;29.82;22.89;98361.56;5079279;28;20033;-83
2021/09/15 04:56:03;;;;;;;2.08;1.88;;;;;;;30.06;22.89;98353.28;5084754;28;20059;-83
2021/09/15 04:58:29;;;;;;;3.10;1.92;;;;;;;29.92;22.96;98353.91;5076455;28;20036;-83
2021/09/15 05:00:55;;;;;;;1.92;1.73;;;;;;;29.57;23.38;98361.72;5075637;28;20032;-83
2021/09/15 05:03:21;;;;;;;1.60;1.50;;;;;;;29.43;23.81;98356.63;5076443;28;20082;-84
2021/09/15 05:05:47;;;;;;;1.67;1.55;;;;;;;29.31;24.19;98363.97;5076583;28;20036;-84
2021/09/15 05:08:14;;;;;;;2.17;1.92;;;;;;;29.49;24.35;98360.47;5077491;28;20032;-84
2021/09/15 05:10:40;;;;;;;2.17;1.65;;;;;;;29.67;24.68;98371.06;5081628;28;20047;-84
2021/09/15 05:13:06;;;;;;;2.65;1.95;;;;;;;29.96;24.69;98372.31;5076456;28;20115;-84
2021/09/15 05:15:32;;;;;;;4.97;3.03;;;;;;;29.84;25.38;98366.75;5089874;28;20040;-87
2021/09/15 05:17:58;;;;;;;4.15;3.25;;;;;;;29.52;26.04;98367.22;5080662;28;20107;-87
2021/09/15 05:20:24;;;;;;;4.10;2.70;;;;;;;29.43;26.31;98363.09;5089863;28;20055;-87
2021/09/15 05:22:52;;;;;;;5.40;2.95;;;;;;;29.62;26.63;98363.16;5094975;28;20507;-87
2021/09/15 05:25:20;;;;;;;2.28;2.08;;;;;;;30.08;25.87;98364.94;5094910;28;20032;-87
2021/09/15 05:27:46;;;;;;;3.17;2.67;;;;;;;30.66;25.56;98360.00;5095219;28;20529;-87
2021/09/15 05:30:13;;;;;;;3.47;2.60;;;;;;;30.84;25.33;98358.41;5095203;28;20028;-87
2021/09/15 05:32:39;;;;;;;4.43;2.75;;;;;;;30.80;25.63;98369.13;5095904;28;20043;-87
2021/09/15 05:35:08;;;;;;;4.00;3.50;;;;;;;30.78;26.01;98359.03;5083896;28;20036;-87
2021/09/15 05:37:34;;;;;;;4.40;3.50;;;;;;;30.51;26.22;98352.59;5075042;28;20489;-87
2021/09/15 05:40:01;;;;;;;3.38;2.67;;;;;;;30.61;26.59;98349.31;5079075;28;20039;-88
2021/09/15 05:42:28;;;;;;;3.25;2.88;;;;;;;30.81;26.21;98353.72;5095000;28;20452;-87
2021/09/15 05:44:54;;;;;;;5.07;4.03;;;;;;;30.67;26.49;98341.72;5093709;28;20397;-87
2021/09/15 05:47:20;;;;;;;3.00;2.65;;;;;;;30.75;26.74;98348.66;5093235;28;20437;-88
2021/09/15 05:49:46;;;;;;;5.45;4.32;;;;;;;30.60;26.94;98346.91;5093894;28;20032;-88
2021/09/15 05:52:12;;;;;;;5.28;2.95;;;;;;;30.80;26.73;98352.13;5083340;28;20482;-88
2021/09/15 05:54:38;;;;;;;5.28;4.20;;;;;;;30.38;27.31;98352.75;5081417;28;20169;-88
2021/09/15 05:57:04;;;;;;;5.45;3.88;;;;;;;30.68;27.21;98351.03;5074462;28;20521;-88
2021/09/15 05:59:31;;;;;;;4.18;3.70;;;;;;;30.66;27.22;98357.19;5074464;28;20041;-88
2021/09/15 06:01:57;;;;;;;4.28;3.65;;;;;;;30.27;28.03;98346.72;5074244;28;20033;-88
2021/09/15 06:04:23;;;;;;;5.13;3.80;;;;;;;29.72;29.15;98342.94;5074109;28;20044;-88
2021/09/15 06:06:49;;;;;;;6.72;5.35;;;;;;;29.46;29.47;98349.25;5074165;28;20039;-88
2021/09/15 06:09:15;;;;;;;6.28;4.82;;;;;;;29.48;29.33;98341.88;5074748;28;20040;-88
2021/09/15 06:11:41;;;;;;;8.38;5.35;;;;;;;29.58;29.43;98345.53;5074177;28;20063;-88
2021/09/15 06:14:07;;;;;;;8.60;6.55;;;;;;;28.11;30.97;98355.41;5074245;28;20028;-88
2021/09/15 06:16:33;;;;;;;6.40;5.28;;;;;;;29.27;30.49;98345.56;5074095;28;20024;-89
2021/09/15 06:18:59;;;;;;;5.70;4.32;;;;;;;29.56;30.73;98356.56;5078661;28;20028;-89
2021/09/15 06:21:25;;;;;;;7.45;4.47;;;;;;;29.66;30.05;98349.69;5092965;28;20044;-89
2021/09/15 06:23:52;;;;;;;7.85;5.43;;;;;;;30.12;29.56;98344.97;5094262;28;20036;-89
2021/09/15 06:26:23;;;;;;;4.22;3.83;;;;;;;30.47;29.22;98349.94;5089963;28;20153;-88
2021/09/15 06:28:49;;;;;;;6.95;5.60;;;;;;;28.45;31.94;98346.97;5094108;28;20507;-89
2021/09/15 06:31:15;;;;;;;6.35;5.15;;;;;;;28.88;31.33;98338.53;5093783;28;20035;-89
2021/09/15 06:33:41;;;;;;;4.50;3.97;;;;;;;29.36;30.88;98343.56;5094073;28;20024;-89
2021/09/15 06:36:07;;;;;;;5.47;4.47;;;;;;;29.63;30.43;98336.47;5094063;28;20614;-89
2021/09/15 06:38:34;;;;;;;5.20;3.85;;;;;;;30.81;29.15;98339.53;5090799;28;20028;-89
2021/09/15 06:41:00;;;;;;;5.32;4.45;;;;;;;31.33;28.10;98339.13;5073637;28;20036;-88
2021/09/15 06:43:27;;;;;;;9.15;5.55;;;;;;;30.01;29.94;98340.53;5074116;28;20036;-88
2021/09/15 06:45:53;;;;;;;6.38;4.90;;;;;;;29.49;31.11;98339.84;5073436;28;20078;-88
2021/09/15 06:48:20;;;;;;;17.67;7.03;;;;;;;29.56;30.45;98339.56;5073603;28;20089;-88
2021/09/15 06:50:46;;;;;;;7.63;3.90;;;;;;;30.13;30.40;98335.97;5090519;28;20385;-88
2021/09/15 06:53:12;;;;;;;5.75;4.80;;;;;;;30.06;30.49;98341.94;5092565;28;20067;-88
2021/09/15 06:55:39;;;;;;;5.82;4.88;;;;;;;29.50;30.82;98342.22;5093778;28;20477;-88
2021/09/15 06:58:05;;;;;;;5.80;5.10;;;;;;;28.34;32.47;98338.06;5092263;28;20482;-88
2021/09/15 07:00:31;;;;;;;6.85;5.00;;;;;;;28.91;32.77;98331.97;5091878;28;20054;-88
2021/09/15 07:02:57;;;;;;;5.70;5.00;;;;;;;29.12;33.10;98330.38;5093561;28;20385;-88
2021/09/15 07:05:24;;;;;;;6.45;5.25;;;;;;;29.63;31.48;98330.78;5093599;28;20035;-88
2021/09/15 07:07:50;;;;;;;5.38;4.88;;;;;;;30.38;30.76;98324.41;5093628;28;20024;-88
2021/09/15 07:10:18;;;;;;;6.22;5.25;;;;;;;29.84;31.02;98325.09;5092222;28;20052;-88
2021/09/15 07:12:44;;;;;;;6.07;4.95;;;;;;;29.88;31.04;98328.56;5093619;28;20050;-88
2021/09/15 07:15:11;;;;;;;5.05;4.43;;;;;;;30.22;31.73;98323.91;5092047;28;20032;-88
2021/09/15 07:17:37;;;;;;;5.55;4.38;;;;;;;29.58;31.63;98334.22;5078246;28;20032;-88
2021/09/15 07:20:04;;;;;;;4.72;4.25;;;;;;;29.40;31.81;98330.09;5083763;28;20031;-88
2021/09/15 07:22:30;;;;;;;6.80;5.43;;;;;;;29.05;32.73;98330.66;5093562;28;20036;-88
2021/09/15 07:24:56;;;;;;;4.93;3.97;;;;;;;30.51;31.52;98330.72;5084391;28;20048;-88
2021/09/15 07:27:23;;;;;;;6.57;4.18;;;;;;;31.40;29.84;98335.94;5073106;28;20029;-88
2021/09/15 07:29:49;;;;;;;4.70;4.28;;;;;;;30.89;30.72;98337.97;5072668;28;20039;-88
2021/09/15 07:32:15;;;;;;;5.32;4.45;;;;;;;31.50;30.58;98329.00;5073100;28;20037;-88
2021/09/15 07:34:44;;;;;;;4.80;4.15;;;;;;;30.48;30.65;98333.72;5072282;28;20117;-89
2021/09/15 07:37:12;;;;;;;4.28;3.85;;;;;;;31.42;29.50;98333.41;5072962;28;20501;-88
2021/09/15 07:39:38;;;;;;;3.95;2.90;;;;;;;32.20;28.83;98336.09;5072864;28;20036;-88
2021/09/15 07:42:04;;;;;;;3.60;3.30;;;;;;;32.66;28.51;98330.84;5072921;28;20032;-88
2021/09/15 07:44:30;;;;;;;4.95;4.10;;;;;;;32.20;27.84;98329.59;5072667;28;20047;-88
2021/09/15 07:46:56;;;;;;;3.65;3.28;;;;;;;32.23;29.34;98325.81;5073068;28;20069;-88
2021/09/15 07:49:22;;;;;;;3.88;3.10;;;;;;;32.71;28.04;98319.59;5078189;28;20036;-86
2021/09/15 07:51:48;;;;;;;4.40;3.13;;;;;;;33.16;27.95;98317.59;5092177;28;20032;-86
2021/09/15 07:54:14;;;;;;;3.42;3.13;;;;;;;32.65;27.70;98321.53;5093583;28;20039;-86
2021/09/15 07:56:40;;;;;;;3.00;2.75;;;;;;;33.33;27.64;98325.16;5098198;28;20098;-86
2021/09/15 07:59:06;;;;;;;3.22;2.92;;;;;;;32.29;28.30;98332.38;5113267;28;20023;-86
2021/09/15 08:01:32;;;;;;;8.70;3.33;;;;;;;32.86;28.57;98328.13;5111809;28;20028;-86
2021/09/15 08:03:58;;;;;;;3.50;3.15;;;;;;;32.55;27.84;98328.59;5113485;28;20028;-85
2021/09/15 08:06:25;;;;;;;2.90;2.60;;;;;;;32.75;28.27;98317.34;5112038;28;20076;-86
2021/09/15 08:08:51;;;;;;;3.55;3.22;;;;;;;32.25;29.02;98326.91;5073091;28;20158;-86
2021/09/15 08:11:18;;;;;;;2.83;2.40;;;;;;;32.84;28.55;98316.47;5074951;28;20033;-86
2021/09/15 08:13:44;;;;;;;3.78;3.03;;;;;;;33.23;27.61;98326.53;5074934;28;20043;-85
2021/09/15 08:16:10;;;;;;;2.55;2.35;;;;;;;33.24;27.29;98328.09;5076344;28;20499;-86
2021/09/15 08:18:36;;;;;;;3.10;2.60;;;;;;;33.69;27.11;98321.09;5076324;28;20033;-86
2021/09/15 08:21:05;;;;;;;3.03;2.72;;;;;;;34.00;26.89;98314.84;5076746;28;20056;-86
2021/09/15 08:23:31;;;;;;;2.50;2.30;;;;;;;34.34;26.50;98313.22;5096395;28;20035;-85
2021/09/15 08:25:57;;;;;;;5.40;2.97;;;;;;;33.90;26.20;98316.22;5078736;28;20060;-88
2021/09/15 08:28:24;;;;;;;3.58;3.28;;;;;;;33.63;26.74;98316.59;5076031;28;20039;-88
2021/09/15 08:30:50;;;;;;;3.95;3.42;;;;;;;32.05;29.98;98321.81;5076024;28;20043;-86
2021/09/15 08:33:16;;;;;;;3.28;2.65;;;;;;;31.32;30.76;98326.22;5076149;28;20104;-87
2021/09/15 08:35:42;;;;;;;2.90;2.58;;;;;;;33.04;29.08;98321.53;5076155;28;20032;-86
2021/09/15 08:38:13;;;;;;;3.60;2.90;;;;;;;32.43;28.63;98326.75;5084430;28;20067;-86
2021/09/15 08:40:40;;;;;;;3.25;2.95;;;;;;;32.36;29.88;98323.50;5095095;28;20027;-86
2021/09/15 08:43:06;;;;;;;3.35;2.80;;;;;;;33.72;27.28;98314.44;5083406;28;20042;-86
2021/09/15 08:45:32;;;;;;;6.07;2.80;;;;;;;33.15;28.04;98318.88;5076066;28;20029;-86
2021/09/15 08:48:02;;;;;;;2.85;2.55;;;;;;;33.53;29.01;98321.63;5085422;28;20031;-86
2021/09/15 08:50:29;;;;;;;2.97;2.77;;;;;;;34.22;26.92;98320.06;5096013;28;20107;-86
2021/09/15 08:52:55;;;;;;;7.95;3.58;;;;;;;33.04;28.12;98316.63;5096416;28;20075;-86
2021/09/15 08:55:22;;;;;;;2.45;2.25;;;;;;;33.57;27.61;98321.41;5096051;28;20040;-86
2021/09/15 08:57:49;;;;;;;3.83;2.65;;;;;;;33.29;29.42;98316.03;5081074;28;20052;-86
2021/09/15 09:00:15;;;;;;;6.80;3.70;;;;;;;32.77;28.70;98313.25;5082553;28;20028;-86
2021/09/15 09:02:51;;;;;;;2.70;2.50;;;;;;;34.04;27.89;98309.72;5074072;28;20413;-86
2021/09/15 09:05:17;;;;;;;2.53;2.33;;;;;;;34.33;26.97;98314.53;5075563;28;20105;-86
2021/09/15 09:07:43;;;;;;;3.78;2.42;;;;;;;35.05;25.01;98318.25;5075485;28;20032;-86
2021/09/15 09:10:13;;;;;;;3.03;2.75;;;;;;;33.52;27.27;98308.63;5075394;28;20048;-86
2021/09/15 09:12:42;;;;;;;4.25;2.65;;;;;;;33.66;28.25;98304.19;5075291;28;20028;-86
2021/09/15 09:15:12;;;;;;;2.78;2.58;;;;;;;33.29;27.33;98301.00;5075833;28;20505;-87
2021/09/15 09:17:38;;;;;;;3.13;2.80;;;;;;;33.93;28.14;98298.16;5075266;28;20056;-86
2021/09/15 09:20:16;;;;;;;2.90;1.95;;;;;;;34.80;25.96;98296.16;5074081;28;20496;-86
2021/09/15 09:23:02;;;;;;;3.00;2.63;;;;;;;33.44;27.67;98282.63;5074412;28;20032;-86
2021/09/15 09:25:32;;;;;;;2.35;2.15;;;;;;;34.03;28.04;98289.00;5075220;28;20040;-86
2021/09/15 09:27:58;;;;;;;3.15;2.88;;;;;;;35.27;26.04;98275.63;5074951;28;20024;-86
2021/09/15 09:30:39;;;;;;;3.97;1.92;;;;;;;35.43;25.75;98272.09;5075029;28;20039;-86
2021/09/15 09:33:06;;;;;;;;;;;;;;;33.96;26.55;98282.88;5076107;28;20430;-86
2021/09/15 09:35:53;;;;;;;3.65;2.42;;;;;;;34.60;25.37;98283.50;5079732;28;19960;-86
2021/09/15 09:38:35;;;;;;;2.88;2.42;;;;;;;33.64;27.72;98272.59;5075197;28;20051;-86
2021/09/15 09:41:11;;;;;;;2.63;2.42;;;;;;;32.71;28.62;98271.25;5074539;28;20028;-87
2021/09/15 09:43:47;;;;;;;3.38;3.08;;;;;;;33.04;28.87;98273.94;5075050;28;20029;-86
2021/09/15 09:46:18;;;;;;;3.00;2.70;;;;;;;33.55;28.14;98270.66;5094124;28;20024;-87
2021/09/15 09:48:49;;;;;;;3.05;2.78;;;;;;;33.84;27.33;98269.78;5094890;28;20417;-87
2021/09/15 09:51:30;;;;;;;2.90;2.22;;;;;;;35.16;25.76;98269.81;5092850;28;20070;-86
2021/09/15 09:54:10;;;;;;;2.75;2.30;;;;;;;34.52;27.38;98256.69;5093734;28;20488;-86
2021/09/15 09:56:39;;;;;;;3.00;2.70;;;;;;;34.36;26.93;98254.41;5093645;28;20043;-86
2021/09/15 09:59:06;;;;;;;2.65;2.30;;;;;;;34.09;27.55;98260.56;5094853;28;20024;-86
2021/09/15 10:01:37;;;;;;;3.20;2.40;;;;;;;34.93;26.91;98256.59;5094613;28;20088;-86
2021/09/15 10:04:04;;;;;;;2.08;1.88;;;;;;;34.92;26.95;98255.03;5094579;28;20024;-86
2021/09/15 10:06:30;;;;;;;2.20;2.03;;;;;;;36.02;24.51;98247.34;5093794;28;20032;-86
2021/09/15 10:08:56;;;;;;;2.10;1.90;;;;;;;36.28;25.05;98241.47;5094405;28;20039;-86
2021/09/15 10:11:23;;;;;;;2.22;2.03;;;;;;;36.66;24.05;98248.63;5094470;28;20045;-86
2021/09/15 10:13:49;;;;;;;3.60;2.38;;;;;;;35.17;25.41;98254.25;5094814;28;20028;-86
2021/09/15 10:16:19;;;;;;;3.08;2.88;;;;;;;34.29;26.89;98256.91;5094424;28;20036;-86
2021/09/15 10:19:03;;;;;;;2.00;1.80;;;;;;;35.09;25.81;98253.16;5094318;28;20047;-86
2021/09/15 10:21:31;;;;;;;2.42;2.13;;;;;;;35.55;24.83;98250.94;5094097;28;20511;-86
2021/09/15 10:23:57;;;;;;;2.20;2.00;;;;;;;34.83;26.70;98256.00;5085012;28;20027;-86
2021/09/15 10:26:46;;;;;;;2.70;2.50;;;;;;;35.05;26.12;98258.31;5073971;28;20111;-86
2021/09/15 10:29:28;;;;;;;3.08;2.05;;;;;;;35.06;25.61;98259.84;5073456;28;20044;-87
2021/09/15 10:32:03;;;;;;;2.53;2.33;;;;;;;34.82;26.88;98260.16;5073854;28;20066;-86
2021/09/15 10:34:38;;;;;;;2.00;1.90;;;;;;;35.39;24.66;98252.34;5073873;28;20462;-86
2021/09/15 10:37:11;;;;;;;2.35;1.73;;;;;;;36.50;24.62;98241.56;5073655;28;20020;-86
2021/09/15 10:39:56;;;;;;;2.30;1.90;;;;;;;36.59;24.90;98246.28;5073404;28;20120;-86
2021/09/15 10:42:38;;;;;;;2.78;2.53;;;;;;;35.29;24.62;98242.41;5073343;28;20048;-86
2021/09/15 10:45:12;;;;;;;2.72;2.53;;;;;;;35.06;26.25;98243.53;5073939;28;20386;-86
2021/09/15 10:47:46;;;;;;;2.90;1.95;;;;;;;35.48;26.13;98237.09;5073554;28;20085;-86
2021/09/15 10:50:33;;;;;;;1.75;1.65;;;;;;;36.68;23.04;98235.38;5073546;28;20121;-86
2021/09/15 10:53:09;;;;;;;3.15;2.00;;;;;;;36.41;23.34;98236.03;5093472;28;20032;-86
2021/09/15 10:55:39;;;;;;;2.38;2.05;;;;;;;36.69;23.68;98227.56;5093753;28;20113;-86
2021/09/15 10:58:26;;;;;;;2.58;2.38;;;;;;;35.35;23.59;98228.19;5083561;28;20032;-87
2021/09/15 11:00:56;;;;;;;2.17;2.00;;;;;;;35.80;24.40;98232.91;5073421;28;20029;-87
2021/09/15 11:03:30;;;;;;;2.38;2.17;;;;;;;36.28;24.37;98226.38;5073595;28;20036;-86
2021/09/15 11:06:17;;;;;;;2.30;2.10;;;;;;;37.21;24.14;98222.94;5073543;28;20083;-86
2021/09/15 11:08:49;;;;;;;1.98;1.42;;;;;;;37.64;22.46;98216.91;5072848;28;20207;-86
2021/09/15 11:11:24;;;;;;;2.03;1.83;;;;;;;37.51;22.31;98216.69;5073291;28;20056;-86
2021/09/15 11:14:00;;;;;;;1.70;1.60;;;;;;;37.60;22.73;98213.56;5073801;28;20040;-86
2021/09/15 11:16:32;;;;;;;1.50;1.40;;;;;;;37.41;22.75;98215.41;5073365;28;20058;-86
2021/09/15 11:19:07;;;;;;;1.83;1.73;;;;;;;37.47;23.76;98216.94;5073368;28;20512;-86
2021/09/15 11:21:37;;;;;;;1.80;1.52;;;;;;;37.94;21.99;98210.09;5087472;28;20036;-86
2021/09/15 11:24:11;;;;;;;2.05;1.95;;;;;;;36.83;21.46;98211.47;5077045;28;20082;-86
2021/09/15 11:26:39;;;;;;;1.63;1.52;;;;;;;37.12;22.08;98211.75;5091263;28;20086;-86
2021/09/15 11:29:05;;;;;;;1.50;1.35;;;;;;;36.66;21.89;98220.03;5092344;28;20059;-86
2021/09/15 11:31:36;;;;;;;2.70;1.75;;;;;;;36.99;21.96;98211.50;5077002;28;20090;-86
2021/09/15 11:34:12;;;;;;;1.48;1.38;;;;;;;37.23;20.41;98206.00;5091699;28;20028;-86
2021/09/15 11:36:39;;;;;;;1.45;1.17;;;;;;;37.91;20.57;98207.47;5093109;28;20107;-86
2021/09/15 11:39:07;;;;;;;1.70;1.38;;;;;;;37.05;21.16;98197.97;5093027;28;20052;-86
2021/09/15 11:41:34;;;;;;;1.60;1.30;;;;;;;37.67;21.21;98198.69;5093138;28;20494;-86
2021/09/15 11:44:00;;;;;;;2.08;1.42;;;;;;;38.53;20.71;98191.56;5092953;28;20036;-86